createdAt,value
2019-05-13T00:01:50.154Z,72.43
2019-05-13T00:04:56.632Z,73.42
2019-05-13T00:08:03.723Z,71.80
2019-05-13T00:11:10.287Z,72.74
2019-05-13T00:14:16.588Z,73.87
2019-05-13T00:17:23.678Z,73.83
2019-05-13T00:20:30.424Z,72.96
2019-05-13T00:23:36.865Z,73.07
2019-05-13T00:26:44.448Z,72.52
2019-05-13T00:29:53.416Z,71.41
2019-05-13T00:32:59.447Z,72.56
2019-05-13T00:36:05.942Z,73.46
2019-05-13T00:39:12.381Z,74.23
2019-05-13T00:42:18.823Z,72.10
2019-05-13T00:45:25.376Z,73.98
2019-05-13T00:48:33.482Z,74.08
2019-05-13T00:51:39.786Z,73.84
2019-05-13T00:54:46.327Z,74.12
2019-05-13T00:57:54.122Z,74.41
2019-05-13T01:01:00.545Z,73.64
2019-05-13T01:04:06.940Z,73.69
2019-05-13T01:07:25.345Z,73.98
2019-05-13T01:10:23.661Z,74.84
2019-05-13T01:13:29.593Z,75.08
2019-05-13T01:16:36.018Z,74.68
2019-05-13T01:19:43.319Z,75.59
2019-05-13T01:22:49.969Z,75.21
2019-05-13T01:25:56.357Z,75.31
2019-05-13T01:29:04.228Z,74.80
2019-05-13T01:32:10.964Z,74.33
2019-05-13T01:35:17.253Z,74.49
2019-05-13T01:38:24.216Z,76.13
2019-05-13T01:41:30.598Z,75.30
2019-05-13T01:44:37.360Z,75.46
2019-05-13T01:47:44.323Z,76.16
2019-05-13T01:50:53.197Z,75.47
2019-05-13T01:53:59.101Z,75.12
2019-05-13T01:57:05.612Z,75.95
2019-05-13T02:00:14.043Z,76.26
2019-05-13T02:03:20.143Z,74.95
2019-05-13T02:06:26.480Z,75.63
2019-05-13T02:09:33.862Z,75.04
2019-05-13T02:12:40.236Z,75.41
2019-05-13T02:15:46.632Z,75.41
2019-05-13T02:18:53.689Z,75.55
2019-05-13T02:22:00.101Z,73.94
2019-05-13T02:25:06.606Z,73.33
2019-05-13T02:28:13.902Z,73.26
2019-05-13T02:31:32.005Z,73.36
2019-05-13T02:34:31.899Z,74.15
2019-05-13T02:37:36.607Z,74.00
2019-05-13T02:40:43.457Z,74.62
2019-05-13T02:43:52.584Z,74.08
2019-05-13T02:46:57.974Z,74.30
2019-05-13T02:50:05.434Z,74.63
2019-05-13T02:53:13.732Z,75.29
2019-05-13T02:56:22.678Z,75.00
2019-05-13T02:59:28.223Z,74.15
2019-05-13T03:02:34.576Z,74.62
2019-05-13T03:05:42.875Z,74.89
2019-05-13T03:08:53.237Z,75.76
2019-05-13T03:11:57.201Z,75.30
2019-05-13T03:15:03.561Z,75.17
2019-05-13T03:18:13.028Z,73.99
2019-05-13T03:21:17.963Z,72.71
2019-05-13T03:24:24.354Z,73.07
2019-05-13T03:27:33.648Z,73.71
2019-05-13T03:30:39.285Z,73.51
2019-05-13T03:33:47.348Z,73.64
2019-05-13T03:36:56.935Z,72.99
2019-05-13T03:40:03.619Z,71.96
2019-05-13T03:43:12.884Z,71.53
2019-05-13T03:46:22.773Z,72.27
2019-05-13T03:49:32.651Z,72.00
2019-05-13T03:52:38.683Z,71.32
2019-05-13T03:55:45.338Z,71.51
2019-05-13T03:58:53.666Z,71.42
2019-05-13T04:02:02.578Z,71.11
2019-05-13T04:05:08.328Z,72.27
2019-05-13T04:08:14.780Z,72.08
2019-05-13T04:11:22.634Z,71.75
2019-05-13T04:14:29.305Z,71.27
2019-05-13T04:17:35.750Z,70.61
2019-05-13T04:20:43.278Z,70.44
2019-05-13T04:23:52.773Z,71.04
2019-05-13T04:26:57.736Z,70.40
2019-05-13T04:30:05.658Z,70.21
2019-05-13T04:33:13.871Z,70.25
2019-05-13T04:36:23.002Z,69.65
2019-05-13T04:39:41.777Z,68.83
2019-05-13T04:42:36.487Z,68.38
2019-05-13T04:45:43.206Z,68.41
2019-05-13T04:48:52.751Z,68.58
2019-05-13T04:51:57.718Z,69.36
2019-05-13T04:55:04.216Z,69.43
2019-05-13T04:58:12.967Z,70.14
2019-05-13T05:02:05.032Z,71.26
2019-05-13T05:05:22.518Z,71.56
2019-05-13T05:09:07.650Z,71.88
2019-05-13T05:13:02.335Z,72.02
2019-05-13T05:16:44.734Z,72.95
2019-05-13T05:20:06.959Z,72.75
2019-05-13T05:23:45.178Z,73.34
2019-05-13T05:27:22.736Z,72.03
2019-05-13T05:30:59.375Z,72.03
2019-05-13T05:34:14.913Z,72.46
2019-05-13T05:37:48.198Z,71.36
2019-05-13T05:40:55.266Z,71.14
2019-05-13T05:44:03.154Z,70.55
2019-05-13T05:47:11.334Z,71.29
2019-05-13T05:50:17.788Z,71.70
2019-05-13T05:53:25.603Z,70.52
2019-05-13T05:56:33.255Z,70.42
2019-05-13T05:59:41.832Z,70.21
2019-05-13T06:02:49.343Z,71.25
2019-05-13T06:05:56.561Z,71.71
2019-05-13T06:09:06.068Z,71.19
2019-05-13T06:12:13.089Z,71.36
2019-05-13T06:15:22.536Z,70.03
2019-05-13T06:18:28.678Z,70.09
2019-05-13T06:21:35.116Z,69.49
2019-05-13T06:24:42.262Z,69.64
2019-05-13T06:27:51.099Z,70.00
2019-05-13T06:30:57.164Z,69.80
2019-05-13T06:34:03.574Z,68.87
2019-05-13T06:37:11.454Z,67.67
2019-05-13T06:40:17.996Z,66.35
2019-05-13T06:43:24.407Z,66.79
2019-05-13T06:46:32.285Z,65.79
2019-05-13T06:49:38.834Z,65.87
2019-05-13T06:52:45.427Z,64.35
2019-05-13T06:55:52.407Z,64.76
2019-05-13T06:59:01.294Z,64.70
2019-05-13T07:02:07.297Z,63.36
2019-05-13T07:05:13.739Z,64.73
2019-05-13T07:08:22.177Z,64.47
2019-05-13T07:11:28.227Z,64.78
2019-05-13T07:14:34.924Z,64.09
2019-05-13T07:17:42.155Z,63.88
2019-05-13T07:20:48.694Z,62.22
2019-05-13T07:23:55.161Z,63.73
2019-05-13T07:27:02.671Z,62.86
2019-05-13T07:30:11.368Z,64.05
2019-05-13T07:33:17.889Z,63.49
2019-05-13T07:36:24.313Z,63.27
2019-05-13T07:39:32.803Z,62.98
2019-05-13T07:42:41.764Z,62.45
2019-05-13T07:45:47.588Z,62.35
2019-05-13T07:48:53.905Z,61.50
2019-05-13T07:52:01.579Z,62.09
2019-05-13T07:55:11.795Z,62.73
2019-05-13T07:58:17.404Z,61.33
2019-05-13T08:01:23.996Z,63.34
2019-05-13T08:04:33.439Z,62.32
2019-05-13T08:07:38.825Z,61.17
2019-05-13T08:10:45.246Z,61.78
2019-05-13T08:13:52.658Z,61.78
2019-05-13T08:16:59.022Z,63.01
2019-05-13T08:20:05.651Z,62.78
2019-05-13T08:23:12.371Z,60.90
2019-05-13T08:26:18.677Z,63.20
2019-05-13T08:29:25.279Z,62.25
2019-05-13T08:32:31.768Z,61.80
2019-05-13T08:35:38.484Z,59.93
2019-05-13T08:38:45.042Z,61.28
2019-05-13T08:41:51.661Z,62.30
2019-05-13T08:44:58.030Z,62.08
2019-05-13T08:48:04.519Z,62.17
2019-05-13T08:51:11.705Z,62.52
2019-05-13T08:54:18.330Z,63.09
2019-05-13T08:57:25.798Z,62.58
2019-05-13T09:00:59.150Z,63.78
2019-05-13T09:04:05.636Z,61.79
2019-05-13T09:07:12.619Z,62.33
2019-05-13T09:10:21.306Z,61.57
2019-05-13T09:13:27.002Z,62.61
2019-05-13T09:16:33.441Z,59.51
2019-05-13T09:19:41.485Z,62.08
2019-05-13T09:22:47.964Z,61.85
2019-05-13T09:25:54.980Z,60.73
2019-05-13T09:29:01.638Z,60.25
2019-05-13T09:32:08.255Z,60.61
2019-05-13T09:35:14.693Z,60.39
2019-05-13T09:38:22.294Z,60.91
2019-05-13T09:41:28.795Z,59.43
2019-05-13T09:44:35.604Z,60.93
2019-05-13T09:47:41.985Z,59.96
2019-05-13T09:50:48.561Z,59.21
2019-05-13T09:53:55.031Z,60.09
2019-05-13T09:57:01.981Z,59.49
2019-05-13T10:00:08.709Z,58.68
2019-05-13T10:03:15.458Z,58.62
2019-05-13T10:06:22.326Z,58.13
2019-05-13T10:09:28.895Z,57.37
2019-05-13T10:12:35.148Z,54.95
2019-05-13T10:15:42.179Z,54.87
2019-05-13T10:18:48.538Z,55.95
2019-05-13T10:21:55.006Z,55.32
2019-05-13T10:25:02.558Z,55.18
2019-05-13T10:28:09.250Z,48.48
2019-05-13T10:31:15.839Z,51.90
2019-05-13T10:34:22.889Z,47.05
2019-05-13T10:37:29.521Z,47.29
2019-05-13T10:40:36.478Z,45.50
2019-05-13T10:43:44.343Z,43.56
2019-05-13T10:46:52.279Z,45.82
2019-05-13T10:49:58.736Z,48.15
2019-05-13T10:53:05.100Z,48.15
2019-05-13T10:56:11.433Z,49.13
2019-05-13T10:59:18.495Z,46.77
2019-05-13T11:02:25.117Z,47.32
2019-05-13T11:05:32.689Z,47.86
2019-05-13T11:08:41.992Z,49.16
2019-05-13T11:11:47.706Z,49.46
2019-05-13T11:14:55.478Z,47.95
2019-05-13T11:18:03.065Z,44.70
2019-05-13T11:21:12.743Z,45.57
2019-05-13T11:24:17.978Z,45.37
2019-05-13T11:27:24.336Z,45.01
2019-05-13T11:30:31.945Z,44.30
2019-05-13T11:33:38.441Z,44.94
2019-05-13T11:36:45.046Z,45.63
2019-05-13T11:39:52.918Z,43.05
2019-05-13T11:43:01.743Z,46.22
2019-05-13T11:46:08.990Z,44.90
2019-05-13T11:49:15.564Z,45.07
2019-05-13T11:52:22.772Z,44.48
2019-05-13T11:55:29.213Z,44.80
2019-05-13T11:58:35.568Z,45.39
2019-05-13T12:01:42.875Z,43.38
2019-05-13T12:04:49.137Z,43.16
2019-05-13T12:07:55.517Z,43.16
2019-05-13T12:11:04.049Z,43.09
2019-05-13T12:14:37.039Z,44.27
2019-05-13T12:17:18.851Z,42.34
2019-05-13T12:20:26.252Z,44.13
2019-05-13T12:23:32.606Z,45.00
2019-05-13T12:26:39.290Z,43.48
2019-05-13T12:29:45.656Z,45.17
2019-05-13T12:32:52.013Z,43.70
2019-05-13T12:35:58.788Z,42.89
2019-05-13T12:39:07.237Z,41.23
2019-05-13T12:42:13.693Z,40.35
2019-05-13T12:45:22.441Z,41.53
2019-05-13T12:48:28.781Z,43.37
2019-05-13T12:51:35.312Z,41.84
2019-05-13T12:54:43.796Z,41.31
2019-05-13T12:57:52.094Z,41.38
2019-05-13T13:00:57.933Z,41.02
2019-05-13T13:04:04.525Z,43.74
2019-05-13T13:07:13.422Z,43.76
2019-05-13T13:10:19.119Z,43.80
2019-05-13T13:13:52.645Z,42.29
2019-05-13T13:16:36.053Z,42.46
2019-05-13T13:19:42.815Z,41.75
2019-05-13T13:22:49.573Z,42.15
2019-05-13T13:25:57.269Z,41.25
2019-05-13T13:29:03.820Z,40.80
2019-05-13T13:32:13.385Z,39.62
2019-05-13T13:35:22.022Z,39.97
2019-05-13T13:38:28.400Z,41.06
2019-05-13T13:41:35.024Z,38.61
2019-05-13T13:44:42.937Z,40.72
2019-05-13T13:48:01.999Z,36.72
2019-05-13T13:50:58.437Z,35.99
2019-05-13T13:54:05.332Z,37.30
2019-05-13T13:57:13.346Z,37.30
2019-05-13T14:00:34.465Z,35.83
2019-05-13T14:03:28.381Z,36.66
2019-05-13T14:09:43.008Z,34.97
2019-05-13T14:12:52.494Z,34.01
2019-05-13T14:15:58.720Z,30.78
2019-05-13T14:19:06.433Z,34.30
2019-05-13T14:22:14.338Z,34.11
2019-05-13T14:25:27.705Z,35.25
2019-05-13T14:28:34.043Z,34.51
2019-05-13T14:31:41.511Z,34.70
2019-05-13T14:34:47.822Z,36.69
2019-05-13T14:37:54.252Z,34.74
2019-05-13T14:41:03.159Z,36.66
2019-05-13T14:44:08.815Z,37.06
2019-05-13T14:47:15.311Z,37.05
2019-05-13T14:50:23.028Z,36.21
2019-05-13T14:53:31.862Z,36.21
2019-05-13T14:56:37.637Z,37.86
2019-05-13T14:59:46.397Z,39.69
2019-05-13T15:02:52.901Z,38.80
2019-05-13T15:06:01.401Z,39.86
2019-05-13T15:09:08.111Z,38.79
2019-05-13T15:12:14.492Z,35.59
2019-05-13T15:15:22.384Z,37.86
2019-05-13T15:18:29.144Z,36.23
2019-05-13T15:21:36.244Z,37.34
2019-05-13T15:24:42.661Z,38.57
2019-05-13T15:27:49.157Z,38.95
2019-05-13T15:30:55.543Z,36.51
2019-05-13T15:34:02.867Z,37.48
2019-05-13T15:37:11.261Z,38.65
2019-05-13T15:40:17.969Z,36.55
2019-05-13T15:43:24.485Z,40.00
2019-05-13T15:46:32.310Z,36.11
2019-05-13T15:49:38.749Z,36.49
2019-05-13T15:52:48.667Z,38.95
2019-05-13T15:55:54.996Z,38.50
2019-05-13T15:59:01.930Z,38.73
2019-05-13T16:02:08.495Z,38.73
2019-05-13T16:05:14.884Z,43.88
2019-05-13T16:08:21.345Z,44.71
2019-05-13T16:11:27.836Z,45.49
2019-05-13T16:14:34.367Z,46.14
2019-05-13T16:17:44.477Z,47.07
2019-05-13T16:20:48.846Z,48.36
2019-05-13T16:23:55.336Z,48.83
2019-05-13T16:27:02.740Z,49.31
2019-05-13T16:30:11.787Z,49.21
2019-05-13T16:33:18.462Z,49.66
2019-05-13T16:36:24.883Z,49.81
2019-05-13T16:39:31.957Z,49.79
2019-05-13T16:42:38.761Z,50.07
2019-05-13T16:45:45.362Z,50.54
2019-05-13T16:48:51.935Z,50.95
2019-05-13T16:51:58.199Z,51.48
2019-05-13T16:55:05.515Z,51.67
2019-05-13T16:58:12.615Z,51.94
2019-05-13T17:01:21.812Z,51.36
2019-05-13T17:04:27.381Z,51.64
2019-05-13T17:07:33.842Z,51.42
2019-05-13T17:10:42.024Z,51.65
2019-05-13T17:13:51.340Z,51.79
2019-05-13T17:16:57.271Z,51.25
2019-05-13T17:20:03.866Z,50.73
2019-05-13T17:23:12.429Z,51.50
2019-05-13T17:26:18.806Z,51.16
2019-05-13T17:29:25.194Z,51.42
2019-05-13T17:32:31.653Z,51.67
2019-05-13T17:35:38.063Z,51.00
2019-05-13T17:38:44.838Z,51.12
2019-05-13T17:41:52.242Z,51.48
2019-05-13T17:44:58.815Z,51.90
2019-05-13T17:48:05.172Z,51.56
2019-05-13T17:51:13.780Z,52.23
2019-05-13T17:54:22.163Z,52.45
2019-05-13T17:57:29.059Z,52.62
2019-05-13T18:00:35.404Z,52.66
2019-05-13T18:03:41.761Z,52.45
2019-05-13T18:06:48.203Z,52.56
2019-05-13T18:09:54.786Z,51.96
2019-05-13T18:13:01.763Z,53.50
2019-05-13T18:16:09.198Z,53.50
2019-05-13T18:19:18.351Z,54.15
2019-05-13T18:22:25.098Z,53.50
2019-05-13T18:25:33.189Z,52.70
2019-05-13T18:28:42.142Z,52.52
2019-05-13T18:31:48.519Z,53.72
2019-05-13T18:34:55.038Z,52.97
2019-05-13T18:38:01.521Z,52.51
2019-05-13T18:41:07.846Z,53.29
2019-05-13T18:44:14.278Z,53.18
2019-05-13T18:47:22.098Z,53.42
2019-05-13T18:50:31.196Z,53.65
2019-05-13T18:53:37.155Z,53.60
2019-05-13T18:56:46.775Z,53.31
2019-05-13T18:59:54.461Z,53.24
2019-05-13T19:03:01.403Z,53.42
2019-05-13T19:06:07.786Z,54.02
2019-05-13T19:09:14.131Z,53.99
2019-05-13T19:12:21.973Z,54.12
2019-05-13T19:15:28.567Z,54.43
2019-05-13T19:18:35.129Z,55.04
2019-05-13T19:21:41.778Z,55.74
2019-05-13T19:24:49.207Z,57.10
2019-05-13T19:27:55.679Z,56.16
2019-05-13T19:31:02.442Z,56.16
2019-05-13T19:34:09.000Z,56.25
2019-05-13T19:37:17.715Z,56.70
2019-05-13T19:40:24.560Z,57.78
2019-05-13T19:43:33.532Z,58.26
2019-05-13T19:46:42.170Z,58.09
2019-05-13T19:49:48.251Z,59.21
2019-05-13T19:52:56.151Z,59.88
2019-05-13T19:56:02.644Z,60.01
2019-05-13T19:59:09.163Z,60.26
2019-05-13T20:02:17.346Z,61.86
2019-05-13T20:05:24.536Z,63.38
2019-05-13T20:08:32.029Z,64.21
2019-05-13T20:11:42.236Z,64.72
2019-05-13T20:14:51.903Z,65.29
2019-05-13T20:17:58.264Z,64.26
2019-05-13T20:21:04.864Z,63.91
2019-05-13T20:24:12.396Z,63.78
2019-05-13T20:27:21.845Z,64.85
2019-05-13T20:30:30.377Z,64.16
2019-05-13T20:33:39.877Z,65.41
2019-05-13T20:36:44.615Z,65.56
2019-05-13T20:39:52.766Z,67.05
2019-05-13T20:43:01.901Z,66.39
2019-05-13T20:46:11.301Z,66.64
2019-05-13T20:49:19.182Z,67.16
2019-05-13T20:52:25.544Z,66.74
2019-05-13T20:55:33.580Z,66.33
2019-05-13T20:58:42.141Z,67.29
2019-05-13T21:01:51.003Z,67.42
2019-05-13T21:05:02.543Z,67.77
2019-05-13T21:08:08.621Z,68.08
2019-05-13T21:11:18.122Z,67.35
2019-05-13T21:14:24.568Z,68.07
2019-05-13T21:17:30.936Z,67.70
2019-05-13T21:20:38.490Z,67.51
2019-05-13T21:23:45.068Z,68.57
2019-05-13T21:26:53.205Z,68.97
2019-05-13T21:30:01.196Z,71.09
2019-05-13T21:33:11.496Z,71.09
2019-05-13T21:36:21.648Z,71.35
2019-05-13T21:39:32.017Z,71.23
2019-05-13T21:42:38.485Z,70.72
2019-05-13T21:45:44.826Z,71.97
2019-05-13T21:48:52.057Z,71.64
2019-05-13T21:52:00.079Z,72.22
2019-05-13T21:55:06.486Z,72.46
2019-05-13T21:58:16.404Z,72.69
2019-05-13T22:01:36.125Z,72.27
2019-05-13T22:04:42.556Z,72.54
2019-05-13T22:07:51.088Z,72.80
2019-05-13T22:10:57.399Z,72.25
2019-05-13T22:14:03.825Z,72.42
2019-05-13T22:17:12.270Z,72.85
2019-05-13T22:20:18.151Z,72.61
2019-05-13T22:23:24.494Z,72.09
2019-05-13T22:26:31.395Z,73.19
2019-05-13T22:29:37.741Z,73.26
2019-05-13T22:32:44.068Z,72.39
2019-05-13T22:35:52.253Z,72.81
2019-05-13T22:39:02.035Z,73.12
2019-05-13T22:42:12.223Z,73.45
2019-05-13T22:45:18.124Z,73.74
2019-05-13T22:48:24.462Z,73.38
2019-05-13T22:51:31.998Z,74.08
2019-05-13T22:54:38.596Z,73.28
2019-05-13T22:57:44.902Z,73.49
2019-05-13T23:00:51.700Z,74.11
2019-05-13T23:03:58.662Z,74.21
2019-05-13T23:07:04.945Z,74.16
2019-05-13T23:10:11.994Z,74.62
2019-05-13T23:13:18.279Z,74.20
2019-05-13T23:16:25.042Z,73.85
2019-05-13T23:19:32.325Z,73.59
2019-05-13T23:22:41.302Z,72.76
2019-05-13T23:25:47.038Z,73.38
2019-05-13T23:28:53.454Z,73.55
2019-05-13T23:32:01.472Z,72.27
2019-05-13T23:35:08.064Z,72.18
2019-05-13T23:38:14.730Z,73.28
2019-05-13T23:41:21.851Z,73.51
2019-05-13T23:44:28.499Z,74.14
2019-05-13T23:47:34.944Z,74.38
2019-05-13T23:50:41.998Z,74.65
2019-05-13T23:53:50.975Z,75.18
2019-05-13T23:56:57.461Z,75.23
